createdAt,value
2022-08-10T00:00:05.617Z,15.13
2022-08-10T00:01:05.653Z,15.19
2022-08-10T00:02:05.597Z,15.21
2022-08-10T00:03:05.593Z,15.31
2022-08-10T00:04:05.690Z,15.09
2022-08-10T00:05:05.570Z,15.13
2022-08-10T00:06:05.577Z,15.13
2022-08-10T00:07:05.550Z,15.20
2022-08-10T00:08:05.537Z,15.19
2022-08-10T00:09:05.528Z,15.19
2022-08-10T00:10:05.526Z,15.12
2022-08-10T00:11:05.522Z,14.98
2022-08-10T00:12:06.580Z,15.09
2022-08-10T00:13:05.491Z,14.94
2022-08-10T00:14:05.479Z,14.80
2022-08-10T00:15:05.469Z,14.86
2022-08-10T00:16:05.476Z,14.80
2022-08-10T00:17:05.559Z,14.86
2022-08-10T00:18:05.438Z,14.78
2022-08-10T00:19:05.429Z,14.81
2022-08-10T00:20:08.702Z,14.57
2022-08-10T00:21:05.441Z,14.65
2022-08-10T00:22:05.406Z,14.47
2022-08-10T00:23:05.444Z,14.50
2022-08-10T00:24:05.386Z,14.60
2022-08-10T00:25:05.374Z,14.61
2022-08-10T00:26:05.393Z,14.61
2022-08-10T00:28:01.163Z,14.71
2022-08-10T00:28:06.349Z,14.62
2022-08-10T00:29:05.434Z,14.64
2022-08-10T00:30:05.324Z,14.60
2022-08-10T00:31:05.335Z,14.65
2022-08-10T00:32:05.309Z,14.60
2022-08-10T00:33:05.298Z,14.54
2022-08-10T00:34:05.288Z,14.46
2022-08-10T00:35:05.280Z,14.38
2022-08-10T00:36:05.294Z,14.46
2022-08-10T00:37:05.454Z,14.39
2022-08-10T00:38:05.252Z,14.37
2022-08-10T00:39:05.275Z,14.50
2022-08-10T00:40:05.365Z,14.49
2022-08-10T00:41:05.224Z,14.42
2022-08-10T00:42:07.512Z,14.49
2022-08-10T00:43:05.213Z,14.46
2022-08-10T00:44:05.200Z,14.46
2022-08-10T00:45:05.194Z,14.49
2022-08-10T00:46:05.185Z,14.53
2022-08-10T00:47:05.184Z,14.53
2022-08-10T00:48:05.418Z,14.53
2022-08-10T00:49:05.146Z,14.57
2022-08-10T00:50:05.145Z,14.67
2022-08-10T00:51:05.133Z,14.62
2022-08-10T00:52:05.140Z,14.53
2022-08-10T00:53:05.116Z,14.68
2022-08-10T00:54:05.105Z,14.67
2022-08-10T00:55:05.145Z,14.72
2022-08-10T00:57:10.067Z,14.71
2022-08-10T00:57:18.029Z,14.60
2022-08-10T00:58:06.069Z,14.62
2022-08-10T00:59:05.222Z,14.56
2022-08-10T01:00:05.049Z,14.57
2022-08-10T01:01:05.074Z,14.68
2022-08-10T01:02:10.485Z,14.67
2022-08-10T01:03:06.099Z,14.65
2022-08-10T01:04:57.245Z,14.56
2022-08-10T01:05:05.998Z,14.50
2022-08-10T01:06:04.991Z,14.46
2022-08-10T01:07:04.992Z,14.49
2022-08-10T01:08:04.995Z,14.47
2022-08-10T01:09:04.978Z,14.29
2022-08-10T01:10:04.951Z,14.25
2022-08-10T01:11:04.939Z,14.09
2022-08-10T01:12:39.043Z,13.95
2022-08-10T01:13:05.927Z,13.92
2022-08-10T01:14:04.916Z,13.89
2022-08-10T01:15:04.896Z,13.92
2022-08-10T01:16:04.908Z,13.88
2022-08-10T01:17:04.881Z,13.95
2022-08-10T01:18:04.874Z,13.80
2022-08-10T01:19:04.868Z,13.83
2022-08-10T01:20:04.858Z,13.87
2022-08-10T01:21:04.857Z,13.91
2022-08-10T01:22:04.836Z,14.06
2022-08-10T01:23:04.823Z,13.96
2022-08-10T01:24:04.814Z,14.01
2022-08-10T01:25:04.802Z,13.95
2022-08-10T01:26:12.176Z,13.99
2022-08-10T01:27:05.792Z,13.99
2022-08-10T01:28:04.777Z,13.87
2022-08-10T01:29:04.769Z,13.83
2022-08-10T01:30:04.765Z,13.84
2022-08-10T01:31:04.751Z,13.98
2022-08-10T01:32:04.758Z,13.96
2022-08-10T01:33:04.736Z,13.95
2022-08-10T01:34:04.724Z,13.94
2022-08-10T01:35:04.713Z,13.80
2022-08-10T01:36:04.708Z,13.79
2022-08-10T01:37:04.707Z,13.74
2022-08-10T01:38:04.690Z,13.71
2022-08-10T01:39:04.826Z,13.79
2022-08-10T01:40:04.667Z,13.73
2022-08-10T01:41:04.652Z,13.70
2022-08-10T01:42:04.667Z,13.69
2022-08-10T01:43:08.355Z,13.73
2022-08-10T01:44:04.635Z,13.65
2022-08-10T01:45:04.617Z,13.71
2022-08-10T01:46:04.611Z,13.76
2022-08-10T01:47:04.638Z,13.76
2022-08-10T01:48:04.588Z,13.71
2022-08-10T01:49:04.577Z,13.63
2022-08-10T01:50:04.568Z,13.63
2022-08-10T01:51:04.559Z,13.71
2022-08-10T01:52:04.559Z,13.58
2022-08-10T01:53:04.538Z,13.65
2022-08-10T01:54:07.106Z,13.67
2022-08-10T01:55:04.512Z,13.74
2022-08-10T01:56:04.503Z,13.58
2022-08-10T01:57:04.512Z,13.55
2022-08-10T01:58:04.547Z,13.59
2022-08-10T01:59:04.479Z,13.51
2022-08-10T02:00:04.488Z,13.51
2022-08-10T02:01:04.630Z,13.51
2022-08-10T02:02:04.471Z,13.62
2022-08-10T02:03:04.454Z,13.56
2022-08-10T02:04:06.116Z,13.55
2022-08-10T02:05:04.450Z,13.59
2022-08-10T02:06:04.413Z,13.61
2022-08-10T02:07:04.444Z,13.62
2022-08-10T02:08:04.392Z,13.65
2022-08-10T02:09:06.287Z,13.69
2022-08-10T02:10:04.495Z,13.70
2022-08-10T02:11:04.416Z,13.70
2022-08-10T02:12:07.606Z,13.70
2022-08-10T02:13:04.371Z,13.71
2022-08-10T02:14:04.481Z,13.73
2022-08-10T02:15:04.497Z,13.73
2022-08-10T02:16:04.358Z,13.67
2022-08-10T02:17:04.463Z,13.61
2022-08-10T02:18:04.378Z,13.44
2022-08-10T02:19:04.322Z,13.43
2022-08-10T02:20:04.293Z,13.49
2022-08-10T02:21:04.281Z,13.41
2022-08-10T02:22:35.939Z,13.38
2022-08-10T02:23:05.257Z,13.44
2022-08-10T02:24:04.273Z,13.25
2022-08-10T02:25:04.238Z,13.06
2022-08-10T02:26:04.227Z,13.07
2022-08-10T02:27:04.238Z,13.14
2022-08-10T02:28:04.212Z,13.17
2022-08-10T02:29:04.193Z,13.20
2022-08-10T02:30:04.407Z,13.22
2022-08-10T02:31:06.445Z,13.29
2022-08-10T02:32:04.199Z,13.37
2022-08-10T02:33:04.192Z,13.33
2022-08-10T02:34:04.419Z,13.32
2022-08-10T02:35:04.166Z,13.32
2022-08-10T02:36:04.180Z,13.43
2022-08-10T02:37:10.844Z,13.38
2022-08-10T02:38:05.111Z,13.49
2022-08-10T02:39:04.106Z,13.51
2022-08-10T02:40:04.327Z,13.47
2022-08-10T02:45:12.427Z,13.47
2022-08-10T02:45:12.481Z,13.51
2022-08-10T02:45:18.653Z,13.40
2022-08-10T02:45:21.692Z,13.43
2022-08-10T02:45:22.917Z,13.41
2022-08-10T02:46:05.051Z,13.40
2022-08-10T02:47:04.052Z,13.33
2022-08-10T02:48:04.194Z,13.21
2022-08-10T02:49:04.094Z,13.24
2022-08-10T02:50:04.012Z,13.24
2022-08-10T02:51:04.058Z,13.18
2022-08-10T02:52:07.540Z,13.22
2022-08-10T02:53:03.975Z,13.14
2022-08-10T02:54:03.964Z,13.09
2022-08-10T02:55:17.098Z,13.14
2022-08-10T02:56:04.967Z,13.06
2022-08-10T02:57:03.932Z,13.06
2022-08-10T02:58:17.280Z,12.88
2022-08-10T02:59:04.915Z,12.81
2022-08-10T03:00:03.939Z,12.74
2022-08-10T03:01:04.037Z,12.77
2022-08-10T03:02:04.076Z,12.64
2022-08-10T03:03:03.888Z,12.78
2022-08-10T03:04:03.960Z,12.67
2022-08-10T03:05:03.936Z,12.77
2022-08-10T03:06:03.857Z,12.67
2022-08-10T03:07:03.859Z,12.71
2022-08-10T03:08:03.836Z,12.71
2022-08-10T03:09:03.817Z,12.70
2022-08-10T03:10:04.479Z,12.71
2022-08-10T03:11:04.805Z,12.71
2022-08-10T03:12:35.897Z,12.63
2022-08-10T03:13:04.778Z,12.66
2022-08-10T03:14:03.768Z,12.62
2022-08-10T03:15:03.759Z,12.67
2022-08-10T03:16:03.754Z,12.64
2022-08-10T03:17:03.755Z,12.62
2022-08-10T03:18:03.734Z,12.64
2022-08-10T03:19:03.918Z,12.64
2022-08-10T03:20:34.536Z,12.63
2022-08-10T03:21:07.717Z,12.59
2022-08-10T03:22:03.709Z,12.57
2022-08-10T03:23:03.677Z,12.60
2022-08-10T03:24:03.713Z,12.54
2022-08-10T03:25:04.667Z,12.69
2022-08-10T03:26:03.661Z,12.77
2022-08-10T03:27:03.729Z,12.77
2022-08-10T03:28:03.662Z,12.85
2022-08-10T03:29:03.624Z,12.81
2022-08-10T03:30:29.750Z,12.85
2022-08-10T03:31:04.793Z,12.84
2022-08-10T03:32:03.620Z,12.87
2022-08-10T03:33:03.588Z,12.96
2022-08-10T03:34:03.598Z,12.79
2022-08-10T03:35:04.564Z,12.89
2022-08-10T03:36:40.545Z,12.97
2022-08-10T03:37:04.565Z,12.81
2022-08-10T03:38:03.540Z,12.79
2022-08-10T03:39:03.529Z,12.84
2022-08-10T03:40:03.527Z,12.81
2022-08-10T03:41:03.509Z,12.64
2022-08-10T03:42:03.517Z,12.69
2022-08-10T03:43:03.499Z,12.69
2022-08-10T03:44:03.489Z,12.67
2022-08-10T03:45:03.474Z,12.60
2022-08-10T03:46:03.463Z,12.56
2022-08-10T03:47:03.465Z,12.45
2022-08-10T03:48:04.453Z,12.48
2022-08-10T03:49:03.542Z,12.57
2022-08-10T03:50:03.444Z,12.60
2022-08-10T03:51:04.447Z,12.60
2022-08-10T03:52:03.618Z,12.57
2022-08-10T03:53:03.395Z,12.57
2022-08-10T03:54:07.015Z,12.49
2022-08-10T03:55:03.516Z,12.49
2022-08-10T03:56:30.496Z,12.54
2022-08-10T03:57:04.426Z,12.51
2022-08-10T03:58:03.399Z,12.52
2022-08-10T03:59:03.351Z,12.56
2022-08-10T04:00:03.338Z,12.59
2022-08-10T04:01:03.377Z,12.54
2022-08-10T04:02:46.059Z,12.51
2022-08-10T04:03:04.371Z,12.46
2022-08-10T04:04:13.669Z,12.48
2022-08-10T04:05:04.276Z,12.51
2022-08-10T04:06:03.517Z,12.52
2022-08-10T04:07:03.279Z,12.41
2022-08-10T04:08:03.253Z,12.39
2022-08-10T04:09:03.236Z,12.48
2022-08-10T04:10:03.233Z,12.44
2022-08-10T04:11:03.216Z,12.51
2022-08-10T04:12:03.219Z,12.42
2022-08-10T04:13:03.204Z,12.49
2022-08-10T04:14:03.196Z,12.56
2022-08-10T04:15:03.245Z,12.51
2022-08-10T04:16:07.330Z,12.52
2022-08-10T04:17:03.238Z,12.52
2022-08-10T04:18:06.267Z,12.54
2022-08-10T04:19:03.149Z,12.60
2022-08-10T04:20:03.145Z,12.63
2022-08-10T04:21:03.136Z,12.57
2022-08-10T04:22:03.129Z,12.59
2022-08-10T04:23:03.108Z,12.56
2022-08-10T04:24:03.094Z,12.62
2022-08-10T04:25:03.088Z,12.64
2022-08-10T04:26:03.081Z,12.56
2022-08-10T04:27:03.093Z,12.54
2022-08-10T04:28:03.252Z,12.57
2022-08-10T04:29:03.050Z,12.52
2022-08-10T04:30:03.035Z,12.62
2022-08-10T04:31:03.032Z,12.64
2022-08-10T04:32:03.097Z,12.64
2022-08-10T04:33:03.011Z,12.64
2022-08-10T04:34:08.896Z,12.60
2022-08-10T04:35:03.992Z,12.57
2022-08-10T04:36:03.019Z,12.70
2022-08-10T04:37:08.192Z,12.69
2022-08-10T04:38:03.963Z,12.75
2022-08-10T04:39:02.955Z,12.77
2022-08-10T04:40:02.936Z,12.79
2022-08-10T04:41:02.932Z,12.70
2022-08-10T04:42:02.927Z,12.71
2022-08-10T04:43:08.989Z,12.96
2022-08-10T04:44:03.952Z,12.84
2022-08-10T04:45:02.905Z,12.84
2022-08-10T04:46:02.881Z,12.87
2022-08-10T04:47:02.891Z,12.81
2022-08-10T04:48:03.458Z,12.88
2022-08-10T04:49:02.857Z,12.89
2022-08-10T04:50:02.842Z,12.92
2022-08-10T04:51:02.849Z,12.92
2022-08-10T04:52:02.836Z,12.95
2022-08-10T04:53:03.002Z,13.00
2022-08-10T04:54:06.923Z,12.85
2022-08-10T04:55:03.845Z,12.89
2022-08-10T04:56:02.789Z,12.97
2022-08-10T04:57:02.834Z,12.89
2022-08-10T04:58:02.767Z,12.89
2022-08-10T04:59:02.764Z,12.88
2022-08-10T05:00:02.747Z,12.81
2022-08-10T05:01:03.778Z,12.79
2022-08-10T05:02:27.998Z,12.87
2022-08-10T05:03:03.725Z,12.96
2022-08-10T05:04:34.157Z,12.82
2022-08-10T05:05:03.709Z,12.85
2022-08-10T05:06:02.692Z,12.87
2022-08-10T05:07:02.839Z,12.84
2022-08-10T05:08:02.721Z,12.82
2022-08-10T05:09:02.666Z,12.87
2022-08-10T05:10:06.721Z,12.87
2022-08-10T05:11:03.642Z,12.92
2022-08-10T05:12:02.653Z,13.03
2022-08-10T05:13:02.636Z,13.07
2022-08-10T05:14:02.613Z,13.11
2022-08-10T05:15:02.609Z,13.14
2022-08-10T05:16:02.592Z,13.21
2022-08-10T05:17:02.603Z,13.21
2022-08-10T05:18:08.746Z,13.30
2022-08-10T05:19:03.570Z,13.33
2022-08-10T05:20:06.368Z,13.41
2022-08-10T05:21:02.545Z,13.47
2022-08-10T05:22:04.283Z,13.41
2022-08-10T05:23:02.529Z,13.47
2022-08-10T05:24:02.518Z,13.55
2022-08-10T05:25:02.587Z,13.52
2022-08-10T05:26:02.651Z,13.59
2022-08-10T05:27:10.000Z,13.63
2022-08-10T05:28:06.485Z,13.63
2022-08-10T05:29:02.465Z,13.62
2022-08-10T05:30:03.340Z,13.55
2022-08-10T05:31:02.452Z,13.51
2022-08-10T05:32:02.452Z,13.55
2022-08-10T05:33:06.598Z,13.49
2022-08-10T05:34:03.422Z,13.54
2022-08-10T05:35:02.428Z,13.46
2022-08-10T05:36:02.407Z,13.63
2022-08-10T05:37:02.409Z,13.65
2022-08-10T05:38:13.312Z,13.59
2022-08-10T05:39:03.380Z,13.74
2022-08-10T05:40:02.481Z,13.67
2022-08-10T05:41:02.380Z,13.74
2022-08-10T05:42:02.349Z,13.79
2022-08-10T05:43:02.340Z,13.80
2022-08-10T05:44:02.389Z,13.83
2022-08-10T05:45:02.325Z,13.79
2022-08-10T05:46:19.013Z,13.87
2022-08-10T05:47:03.300Z,13.84
2022-08-10T05:48:54.365Z,13.92
2022-08-10T05:49:03.276Z,13.88
2022-08-10T05:50:02.270Z,14.01
2022-08-10T05:51:02.274Z,14.02
2022-08-10T05:52:02.295Z,14.12
2022-08-10T05:53:39.138Z,14.13
2022-08-10T05:54:06.648Z,14.32
2022-08-10T05:55:03.113Z,14.37
2022-08-10T05:56:02.232Z,14.43
2022-08-10T05:57:02.205Z,14.49
2022-08-10T05:58:02.411Z,14.53
2022-08-10T05:59:09.205Z,14.68
2022-08-10T06:00:11.248Z,14.68
2022-08-10T06:01:03.246Z,14.83
2022-08-10T06:02:41.087Z,14.84
2022-08-10T06:03:03.144Z,14.99
2022-08-10T06:04:02.129Z,15.02
2022-08-10T06:05:02.125Z,15.11
2022-08-10T06:06:02.105Z,15.26
2022-08-10T06:07:02.112Z,15.31
2022-08-10T06:08:02.094Z,15.24
2022-08-10T06:09:02.080Z,15.41
2022-08-10T06:10:02.075Z,15.51
2022-08-10T06:12:25.213Z,15.56
2022-08-10T06:12:27.136Z,15.68
2022-08-10T06:13:03.537Z,15.76
2022-08-10T06:14:12.811Z,15.88
2022-08-10T06:15:05.919Z,15.96
2022-08-10T06:16:03.010Z,16.03
2022-08-10T06:17:02.020Z,16.25
2022-08-10T06:18:02.420Z,16.20
2022-08-10T06:19:01.981Z,16.37
2022-08-10T06:20:01.975Z,16.45
2022-08-10T06:21:01.974Z,16.52
2022-08-10T06:22:01.968Z,16.62
2022-08-10T06:23:01.945Z,16.62
2022-08-10T06:24:02.026Z,16.75
2022-08-10T06:25:37.841Z,16.88
2022-08-10T06:26:11.097Z,16.90
2022-08-10T06:27:03.082Z,16.96
2022-08-10T06:28:01.897Z,16.95
2022-08-10T06:29:02.648Z,17.08
2022-08-10T06:30:01.878Z,17.25
2022-08-10T06:31:01.876Z,17.35
2022-08-10T06:32:01.903Z,17.33
2022-08-10T06:33:01.846Z,17.50
2022-08-10T06:34:01.828Z,17.66
2022-08-10T06:35:01.829Z,17.62
2022-08-10T06:36:01.810Z,17.81
2022-08-10T06:37:01.821Z,17.85
2022-08-10T06:38:01.794Z,18.04
2022-08-10T06:39:16.933Z,18.09
2022-08-10T06:40:02.856Z,18.24
2022-08-10T06:41:01.768Z,18.21
2022-08-10T06:42:16.655Z,18.42
2022-08-10T06:43:02.753Z,18.43
2022-08-10T06:44:01.736Z,18.47
2022-08-10T06:45:01.733Z,18.62
2022-08-10T06:46:08.368Z,18.67
2022-08-10T06:47:02.960Z,18.72
2022-08-10T06:48:01.698Z,18.73
2022-08-10T06:49:01.926Z,18.90
2022-08-10T06:50:04.931Z,18.97
2022-08-10T06:51:02.672Z,19.02
2022-08-10T06:52:01.807Z,19.11
2022-08-10T06:53:01.646Z,19.20
2022-08-10T06:54:01.629Z,19.38
2022-08-10T06:55:05.179Z,19.33
2022-08-10T06:56:01.618Z,19.35
2022-08-10T06:57:17.727Z,19.61
2022-08-10T06:58:02.600Z,19.65
2022-08-10T06:59:01.593Z,19.78
2022-08-10T07:00:02.658Z,19.88
2022-08-10T07:01:01.649Z,20.02
2022-08-10T07:02:01.576Z,20.09
2022-08-10T07:03:01.550Z,20.21
2022-08-10T07:04:02.623Z,20.27
2022-08-10T07:05:01.533Z,20.24
2022-08-10T07:06:01.637Z,20.43
2022-08-10T07:07:01.526Z,20.53
2022-08-10T07:08:01.497Z,20.54
2022-08-10T07:09:01.492Z,20.59
2022-08-10T07:10:01.483Z,20.66
2022-08-10T07:11:01.484Z,20.72
2022-08-10T07:12:07.504Z,20.86
2022-08-10T07:13:02.456Z,20.87
2022-08-10T07:14:16.604Z,21.06
2022-08-10T07:15:02.429Z,21.17
2022-08-10T07:16:01.496Z,21.26
2022-08-10T07:17:01.423Z,21.23
2022-08-10T07:18:01.400Z,21.38
2022-08-10T07:19:01.393Z,21.48
2022-08-10T07:20:01.477Z,21.45
2022-08-10T07:21:01.373Z,21.61
2022-08-10T07:22:01.430Z,21.61
2022-08-10T07:23:57.082Z,21.78
2022-08-10T07:24:02.988Z,21.90
2022-08-10T07:25:01.339Z,22.04
2022-08-10T07:26:01.439Z,22.19
2022-08-10T07:27:01.413Z,22.32
2022-08-10T07:28:02.062Z,22.27
2022-08-10T07:29:01.298Z,22.44
2022-08-10T07:30:01.287Z,22.44
2022-08-10T07:31:01.283Z,22.46
2022-08-10T07:32:01.277Z,22.65
2022-08-10T07:33:01.304Z,22.67
2022-08-10T07:34:01.239Z,22.78
2022-08-10T07:35:01.443Z,22.92
2022-08-10T07:36:01.260Z,23.07
2022-08-10T07:37:01.240Z,23.27
2022-08-10T07:38:01.213Z,23.52
2022-08-10T07:39:01.199Z,23.83
2022-08-10T07:40:03.365Z,24.23
2022-08-10T07:41:01.194Z,24.52
2022-08-10T07:42:01.179Z,24.95
2022-08-10T07:43:01.194Z,25.31
2022-08-10T07:44:01.152Z,25.74
2022-08-10T07:45:01.143Z,26.24
2022-08-10T07:46:01.128Z,26.61
2022-08-10T07:47:01.138Z,26.87
2022-08-10T07:48:06.701Z,27.24
2022-08-10T07:49:01.110Z,27.64
2022-08-10T07:50:01.137Z,27.92
2022-08-10T07:51:01.090Z,28.17
2022-08-10T07:52:01.143Z,28.10
2022-08-10T07:53:01.066Z,28.28
2022-08-10T07:54:01.052Z,28.16
2022-08-10T07:55:01.052Z,27.74
2022-08-10T07:56:04.466Z,27.59
2022-08-10T07:57:02.051Z,27.50
2022-08-10T07:58:01.019Z,27.31
2022-08-10T07:59:01.024Z,27.21
2022-08-10T08:00:01.006Z,27.17
2022-08-10T08:01:00.991Z,27.10
2022-08-10T08:01:49.395Z,28.15
2022-08-10T08:02:01.058Z,26.92
2022-08-10T08:02:49.377Z,28.41
2022-08-10T08:03:00.974Z,27.04
2022-08-10T08:04:10.527Z,28.19
2022-08-10T08:04:10.634Z,27.14
2022-08-10T08:04:51.478Z,27.92
2022-08-10T08:05:01.954Z,27.48
2022-08-10T08:05:58.541Z,27.41
2022-08-10T08:06:05.334Z,27.88
2022-08-10T08:06:51.471Z,27.88
2022-08-10T08:07:01.948Z,28.26
2022-08-10T08:07:50.445Z,28.48
2022-08-10T08:08:00.923Z,28.60
2022-08-10T08:08:50.439Z,28.44
2022-08-10T08:09:00.914Z,29.28
2022-08-10T08:09:57.638Z,28.89
2022-08-10T08:10:01.250Z,30.05
2022-08-10T08:10:51.424Z,28.90
2022-08-10T08:11:00.896Z,30.75
2022-08-10T08:11:51.110Z,29.26
2022-08-10T08:12:00.895Z,31.38
2022-08-10T08:12:50.425Z,30.08
2022-08-10T08:13:00.878Z,31.79
2022-08-10T08:13:50.389Z,30.46
2022-08-10T08:14:00.871Z,32.25
2022-08-10T08:14:50.380Z,30.70
2022-08-10T08:15:00.856Z,32.59
2022-08-10T08:16:16.908Z,30.32
2022-08-10T08:16:17.623Z,32.64
2022-08-10T08:16:51.616Z,29.46
2022-08-10T08:17:01.859Z,32.69
2022-08-10T08:17:52.466Z,28.55
2022-08-10T08:18:00.982Z,32.92
2022-08-10T08:19:16.500Z,27.99
2022-08-10T08:19:27.033Z,32.93
2022-08-10T08:19:55.423Z,27.92
2022-08-10T08:20:01.809Z,33.03
2022-08-10T08:20:50.352Z,28.04
2022-08-10T08:21:00.798Z,33.15
2022-08-10T08:24:05.240Z,33.13
2022-08-10T08:24:05.778Z,27.75
2022-08-10T08:24:07.236Z,27.82
2022-08-10T08:24:09.524Z,33.20
2022-08-10T08:24:10.168Z,28.27
2022-08-10T08:24:14.903Z,33.15
2022-08-10T08:24:52.353Z,28.15
2022-08-10T08:25:01.767Z,32.91
2022-08-10T08:25:50.283Z,28.86
2022-08-10T08:26:00.752Z,32.55
2022-08-10T08:26:52.057Z,28.81
2022-08-10T08:27:00.757Z,32.43
2022-08-10T08:27:50.260Z,29.18
2022-08-10T08:28:00.728Z,32.06
2022-08-10T08:28:50.258Z,29.64
2022-08-10T08:29:00.740Z,32.00
2022-08-10T08:29:50.242Z,30.34
2022-08-10T08:30:00.754Z,31.55
2022-08-10T08:30:50.249Z,30.73
2022-08-10T08:31:00.700Z,31.24
2022-08-10T08:32:01.335Z,30.11
2022-08-10T08:32:01.574Z,30.83
2022-08-10T08:32:51.217Z,29.86
2022-08-10T08:33:00.682Z,30.81
2022-08-10T08:33:50.211Z,30.39
2022-08-10T08:34:00.680Z,30.75
2022-08-10T08:34:50.200Z,30.29
2022-08-10T08:35:00.663Z,30.80
2022-08-10T08:35:50.191Z,30.37
2022-08-10T08:36:00.657Z,30.87
2022-08-10T08:36:50.196Z,30.70
2022-08-10T08:37:00.802Z,31.02
2022-08-10T08:38:30.417Z,31.04
2022-08-10T08:38:32.517Z,30.49
2022-08-10T08:38:51.161Z,30.79
2022-08-10T08:39:01.634Z,31.08
2022-08-10T08:39:50.228Z,30.72
2022-08-10T08:40:00.632Z,31.20
2022-08-10T08:40:50.147Z,30.57
2022-08-10T08:41:00.621Z,31.53
2022-08-10T08:41:50.153Z,29.95
2022-08-10T08:42:00.621Z,31.40
2022-08-10T08:42:50.129Z,29.28
2022-08-10T08:43:00.600Z,31.40
2022-08-10T08:43:50.116Z,29.43
2022-08-10T08:44:00.591Z,31.40
2022-08-10T08:44:50.112Z,29.79
2022-08-10T08:45:00.577Z,31.60
2022-08-10T08:46:00.809Z,29.78
2022-08-10T08:46:01.964Z,32.15
2022-08-10T08:46:58.959Z,29.28
2022-08-10T08:47:00.573Z,32.59
2022-08-10T08:48:03.766Z,33.27
2022-08-10T08:48:03.829Z,29.05
2022-08-10T08:48:51.080Z,29.49
2022-08-10T08:49:01.538Z,33.82
2022-08-10T08:50:08.396Z,34.02
2022-08-10T08:50:08.983Z,30.17
2022-08-10T08:50:56.641Z,29.68
2022-08-10T08:51:01.751Z,34.48
2022-08-10T08:52:07.775Z,34.99
2022-08-10T08:52:09.227Z,29.52
2022-08-10T08:52:51.193Z,29.80
2022-08-10T08:53:01.509Z,35.42
2022-08-10T08:54:01.582Z,36.04
2022-08-10T08:54:02.899Z,29.85
2022-08-10T08:54:51.019Z,29.87
2022-08-10T08:55:00.491Z,36.64
2022-08-10T08:56:00.787Z,30.51
2022-08-10T08:56:06.220Z,36.98
2022-08-10T08:56:51.007Z,30.37
2022-08-10T08:57:01.490Z,37.23
2022-08-10T08:57:51.317Z,30.35
2022-08-10T08:58:00.467Z,37.31
2022-08-10T08:58:49.998Z,30.47
2022-08-10T08:59:00.822Z,37.38
2022-08-10T08:59:49.980Z,30.61
2022-08-10T09:00:00.450Z,37.48
2022-08-10T09:00:49.966Z,29.05
2022-08-10T09:01:00.443Z,37.51
2022-08-10T09:01:50.025Z,29.33
2022-08-10T09:02:00.494Z,37.32
2022-08-10T09:02:54.594Z,29.24
2022-08-10T09:03:00.469Z,37.51
2022-08-10T09:03:50.942Z,29.05
2022-08-10T09:04:00.410Z,37.50
2022-08-10T09:04:49.934Z,29.36
2022-08-10T09:05:00.404Z,37.56
2022-08-10T09:05:59.655Z,29.21
2022-08-10T09:06:00.833Z,37.24
2022-08-10T09:06:50.933Z,28.54
2022-08-10T09:07:00.390Z,37.23
2022-08-10T09:08:02.194Z,28.30
2022-08-10T09:08:03.008Z,36.75
2022-08-10T09:08:50.891Z,28.48
2022-08-10T09:09:00.375Z,36.08
2022-08-10T09:09:49.900Z,28.00
2022-08-10T09:10:00.372Z,35.66
2022-08-10T09:10:49.878Z,28.51
2022-08-10T09:11:00.351Z,35.52
2022-08-10T09:11:49.867Z,27.77
2022-08-10T09:12:00.346Z,35.35
2022-08-10T09:12:49.861Z,28.39
2022-08-10T09:13:00.331Z,35.48
2022-08-10T09:13:49.847Z,28.68
2022-08-10T09:14:00.328Z,35.62
2022-08-10T09:15:00.332Z,35.39
2022-08-10T09:15:40.563Z,29.18
2022-08-10T09:15:50.832Z,28.58
2022-08-10T09:16:00.945Z,35.26
2022-08-10T09:16:49.826Z,28.55
2022-08-10T09:17:00.303Z,35.33
2022-08-10T09:17:49.816Z,28.46
2022-08-10T09:18:00.288Z,35.62
2022-08-10T09:18:49.809Z,28.37
2022-08-10T09:19:00.329Z,35.85
2022-08-10T09:19:49.816Z,28.37
2022-08-10T09:20:00.295Z,36.14
2022-08-10T09:20:49.790Z,28.62
2022-08-10T09:21:00.268Z,36.36
2022-08-10T09:21:59.149Z,28.52
2022-08-10T09:22:17.395Z,36.52
2022-08-10T09:22:51.658Z,28.41
2022-08-10T09:23:01.291Z,36.70
2022-08-10T09:24:05.009Z,28.76
2022-08-10T09:24:05.009Z,36.92
2022-08-10T09:24:50.777Z,28.59
2022-08-10T09:25:01.247Z,37.28
2022-08-10T09:25:49.741Z,28.25
2022-08-10T09:26:00.225Z,37.39
2022-08-10T09:26:49.731Z,28.56
2022-08-10T09:27:00.213Z,37.59
2022-08-10T09:27:50.191Z,28.68
2022-08-10T09:28:00.210Z,37.89
2022-08-10T09:28:52.471Z,28.80
2022-08-10T09:29:12.394Z,38.34
2022-08-10T09:29:50.720Z,28.43
2022-08-10T09:30:01.205Z,38.38
2022-08-10T09:31:18.755Z,28.09
2022-08-10T09:31:23.600Z,38.79
2022-08-10T09:31:55.770Z,28.04
2022-08-10T09:36:14.252Z,28.40
2022-08-10T09:36:16.854Z,39.18
2022-08-10T09:36:17.094Z,39.71
2022-08-10T09:36:19.619Z,29.80
2022-08-10T09:36:20.094Z,39.70
2022-08-10T09:36:22.104Z,28.96
2022-08-10T09:36:23.160Z,39.96
2022-08-10T09:36:23.503Z,29.16
2022-08-10T09:36:29.808Z,40.00
2022-08-10T09:36:50.652Z,30.04
2022-08-10T09:37:01.127Z,40.07
2022-08-10T09:38:01.780Z,29.78
2022-08-10T09:38:02.191Z,39.05
2022-08-10T09:38:50.643Z,29.34
2022-08-10T09:39:00.118Z,39.27
2022-08-10T09:40:06.587Z,29.68
2022-08-10T09:40:06.620Z,39.39
2022-08-10T09:41:00.075Z,29.48
2022-08-10T09:41:04.966Z,40.02
2022-08-10T09:41:50.634Z,29.87
2022-08-10T09:42:01.095Z,40.45
2022-08-10T09:43:07.585Z,29.48
2022-08-10T09:43:23.597Z,39.46
2022-08-10T09:43:51.584Z,28.90
2022-08-10T09:44:01.083Z,39.70
2022-08-10T09:44:58.021Z,29.12
2022-08-10T09:45:00.104Z,40.19
2022-08-10T09:45:50.561Z,28.64
2022-08-10T09:46:00.062Z,40.76
2022-08-10T09:46:49.555Z,28.19
2022-08-10T09:47:00.049Z,41.13
2022-08-10T09:48:01.678Z,28.22
2022-08-10T09:48:02.712Z,41.65
2022-08-10T09:48:50.529Z,28.15
2022-08-10T09:49:00.031Z,41.98
2022-08-10T09:49:54.853Z,29.09
2022-08-10T09:50:04.507Z,42.23
2022-08-10T09:51:28.401Z,29.08
2022-08-10T09:51:43.836Z,42.47
2022-08-10T09:51:51.504Z,29.68
2022-08-10T09:52:01.011Z,42.10
2022-08-10T09:52:49.491Z,29.68
2022-08-10T09:53:00.001Z,41.98
2022-08-10T09:53:50.485Z,29.51
2022-08-10T09:53:59.991Z,41.78
2022-08-10T09:54:49.498Z,29.21
2022-08-10T09:55:00.000Z,41.63
2022-08-10T09:56:18.117Z,41.68
2022-08-10T09:56:19.383Z,28.92
2022-08-10T09:56:50.518Z,28.73
2022-08-10T09:57:24.504Z,42.37
2022-08-10T09:57:49.460Z,28.56
2022-08-10T09:58:01.187Z,42.44
2022-08-10T09:58:50.441Z,28.92
2022-08-10T09:59:27.069Z,42.38
2022-08-10T10:00:01.577Z,28.52
2022-08-10T10:00:02.828Z,42.60
2022-08-10T10:00:50.431Z,28.68
2022-08-10T10:00:59.936Z,43.09
2022-08-10T10:02:03.457Z,43.29
2022-08-10T10:02:03.835Z,29.15
2022-08-10T10:02:50.476Z,29.36
2022-08-10T10:02:59.967Z,43.75
2022-08-10T10:03:49.451Z,29.05
2022-08-10T10:03:59.927Z,43.68
2022-08-10T10:04:49.413Z,29.00
2022-08-10T10:04:59.921Z,43.73
2022-08-10T10:05:52.509Z,28.74
2022-08-10T10:05:59.899Z,43.83
2022-08-10T10:06:49.379Z,28.70
2022-08-10T10:06:59.884Z,44.33
2022-08-10T10:07:49.363Z,29.42
2022-08-10T10:07:59.883Z,44.48
2022-08-10T10:08:58.174Z,29.98
2022-08-10T10:09:10.295Z,44.80
2022-08-10T10:09:50.357Z,28.66
2022-08-10T10:10:00.885Z,44.38
2022-08-10T10:10:49.340Z,29.00
2022-08-10T10:10:59.855Z,43.57
2022-08-10T10:11:49.328Z,29.19
2022-08-10T10:12:09.211Z,43.09
2022-08-10T10:12:49.319Z,29.09
2022-08-10T10:13:00.855Z,43.39
2022-08-10T10:14:02.410Z,43.51
2022-08-10T10:14:03.049Z,28.44
2022-08-10T10:14:50.312Z,28.54
2022-08-10T10:14:59.862Z,43.75
2022-08-10T10:15:49.289Z,28.86
2022-08-10T10:15:59.826Z,44.23
2022-08-10T10:16:49.273Z,28.89
2022-08-10T10:16:59.811Z,44.55
2022-08-10T10:17:49.271Z,28.77
2022-08-10T10:17:59.860Z,44.81
2022-08-10T10:18:49.256Z,28.64
2022-08-10T10:18:59.796Z,44.62
2022-08-10T10:19:49.272Z,28.41
2022-08-10T10:19:59.804Z,44.21
2022-08-10T10:20:49.254Z,28.81
2022-08-10T10:20:59.781Z,43.95
2022-08-10T10:21:59.801Z,43.95
2022-08-10T10:22:21.183Z,29.28
2022-08-10T10:22:49.229Z,30.11
2022-08-10T10:22:59.769Z,44.23
2022-08-10T10:24:19.763Z,30.51
2022-08-10T10:24:20.408Z,44.26
2022-08-10T10:24:51.224Z,30.55
2022-08-10T10:25:00.769Z,44.24
2022-08-10T10:25:51.333Z,29.31
2022-08-10T10:26:04.377Z,44.36
2022-08-10T10:26:49.192Z,29.26